Currently N/A°F in San Bernardino, California, USA
N/A°F Alert
N/A°F / N/A°F
N/A
N/A
Sunday, July 23, 2017 7:43 PM PDT

San Bernardino, California Weather Summary
Last 36 Hours

Temperature Winds Hourly Humidity Dewpoint
Time Report Norm Report Norm Max Gusts Precip. Rpt. Norm Rpt. Norm Pressure
1,3Sat 12:20 AM  76.8°F  72°F  calm  1 mph  3 mph  0.00"  49%  62%  55°F  57°F  N/A
2Sat 12:07 AM  77.9°F  72°F  1 mph SW  2 mph  5 mph  ----  48%  61%  56°F  57°F  N/A
Sat 12:00 AM  77.8°F  72°F  1 mph SW  2 mph  5 mph  0.00"  48%  61%  56°F  57°F  N/A
Fri 11:00 PM  79.4°F  74°F  1 mph SW  2 mph  7 mph  0.00"  44%  57%  55°F  57°F  N/A
Fri 10:00 PM  80.6°F  76°F  3 mph SW  3 mph  5 mph  0.00"  42%  54%  55°F  57°F  N/A
Fri 09:00 PM  83.3°F  78°F  calm  4 mph  11 mph  0.00"  40%  49%  56°F  56°F  N/A
Fri 08:00 PM  86.8°F  81°F  4 mph W  5 mph  11 mph  0.00"  38%  43%  58°F  55°F  N/A
Fri 07:00 PM  90.8°F  85°F  6 mph SW  5 mph  13 mph  0.00"  32%  36%  56°F  54°F  N/A
Fri 06:00 PM  92.9°F  87°F  6 mph W  5 mph  12 mph  0.00"  25%  31%  50°F  52°F  N/A
Fri 05:00 PM  94.4°F  89°F  6 mph SW  4 mph  13 mph  0.00"  24%  28%  51°F  51°F  N/A
Fri 04:00 PM  95.0°F  90°F  3 mph SW  4 mph  15 mph  0.00"  22%  26%  49°F  50°F  N/A
Fri 03:00 PM  94.2°F  90°F  calm  4 mph  12 mph  0.00"  23%  26%  50°F  49°F  N/A
Fri 02:00 PM  93.8°F  89°F  5 mph SW  3 mph  10 mph  0.00"  23%  27%  49°F  50°F  N/A
Fri 01:00 PM  92.5°F  88°F  calm  2 mph  none  0.00"  25%  30%  50°F  51°F  N/A
Fri 12:00 PM  90.0°F  85°F  calm  2 mph  8 mph  0.00"  28%  35%  51°F  54°F  N/A
Fri 11:00 AM  87.2°F  81°F  calm  2 mph  8 mph  0.00"  30%  43%  51°F  56°F  N/A
Fri 10:00 AM  83.7°F  78°F  2 mph SW  2 mph  7 mph  0.00"  35%  51%  52°F  57°F  N/A
Fri 09:00 AM  80.1°F  74°F  2 mph E  1 mph  4 mph  0.00"  42%  59%  54°F  58°F  N/A
Fri 08:00 AM  75.0°F  70°F  calm  1 mph  3 mph  0.00"  52%  66%  55°F  58°F  N/A
Fri 07:00 AM  70.4°F  68°F  calm  1 mph  none  0.00"  61%  72%  56°F  58°F  N/A
Fri 06:00 AM  69.5°F  67°F  calm  1 mph  2 mph  0.00"  60%  73%  55°F  58°F  N/A
Fri 05:00 AM  69.9°F  67°F  calm  1 mph  4 mph  0.00"  59%  72%  54°F  58°F  N/A
Fri 04:00 AM  71.1°F  68°F  1 mph S  1 mph  4 mph  0.00"  52%  71%  52°F  58°F  N/A
Fri 03:00 AM  72.8°F  69°F  calm  1 mph  3 mph  0.00"  48%  69%  51°F  58°F  N/A
Fri 02:00 AM  74.1°F  70°F  1 mph SW  1 mph  6 mph  0.00"  46%  67%  51°F  58°F  N/A
Fri 01:00 AM  75.1°F  71°F  3 mph SW  1 mph  5 mph  0.00"  45%  64%  51°F  57°F  N/A
Fri 12:00 AM  76.5°F  72°F  calm  2 mph  6 mph  0.00"  46%  61%  53°F  57°F  N/A
Thu 11:00 PM  78.4°F  74°F  2 mph SW  3 mph  6 mph  0.00"  49%  58%  57°F  57°F  N/A
Thu 10:00 PM  80.1°F  76°F  calm  3 mph  none  0.00"  41%  54%  54°F  57°F  N/A
Thu 09:00 PM  82.2°F  78°F  calm  4 mph  10 mph  0.00"  37%  48%  52°F  56°F  N/A
Thu 08:00 PM  84.5°F  81°F  5 mph SW  5 mph  12 mph  0.00"  37%  42%  55°F  55°F  N/A
Thu 07:00 PM  88.0°F  85°F  6 mph W  5 mph  13 mph  0.00"  33%  35%  54°F  53°F  N/A
Thu 06:00 PM  90.3°F  87°F  6 mph W  5 mph  14 mph  0.00"  27%  31%  51°F  52°F  N/A
Thu 05:00 PM  92.4°F  90°F  calm  4 mph  12 mph  0.00"  24%  27%  49°F  50°F  N/A
Thu 04:00 PM  93.7°F  91°F  calm  4 mph  10 mph  0.00"  24%  25%  50°F  49°F  N/A
Thu 03:00 PM  93.9°F  90°F  calm  4 mph  11 mph  0.00"  22%  25%  48°F  49°F  N/A
Thu 02:00 PM  92.6°F  90°F  7 mph SW  3 mph  10 mph  0.00"  22%  27%  47°F  50°F  N/A
Thu 01:00 PM  91.2°F  88°F  5 mph W  2 mph  11 mph  0.00"  24%  30%  48°F  51°F  N/A
Thu 12:00 PM  88.9°F  85°F  1 mph S  2 mph  7 mph  0.00"  24%  35%  46°F  54°F  N/A

  1. Current weather data. No green row appears if the current weather data is also the high or low for the current day.
  2. High temperature for the current day.
  3. Low temperature for the current day.

The San Bernardino, California weather pages are a service of WeatherCurrents.
Copyright ©Sun Jul 23 19:43:37 PDT 2017  WeatherCurrents. All rights reserved. - Submit questions and comments - Privacy Policy

This page automatically refreshes every 10 minutes.